Time;durP1;ratioP1;P1;durP2;ratioP2;P2;SDS_P1;SDS_P2;PMS_P1;PMS_P2;Temp;Humidity;BMP_temperature;BMP_pressure;BME280_temperature;BME280_humidity;BME280_pressure;Samples;Min_cycle;Max_cycle;Signal;HPM_P1;HPM_P2
2022/04/27 00:01:49;;;;;;;;;;;6.90;99.90;;;6.16;100.00;97508.75;5010435;28;20399;-61
2022/04/27 00:04:14;;;;;;;;;;;6.90;99.90;;;6.16;100.00;97500.91;5015328;28;19917;-60
2022/04/27 00:06:40;;;;;;;;;;;6.90;99.90;;;6.17;100.00;97499.97;5011593;28;19925;-61
2022/04/27 00:09:06;;;;;;;;;;;6.90;99.90;;;6.18;100.00;97506.97;5007577;28;19935;-61
2022/04/27 00:11:31;;;;;;;;;;;6.90;99.90;;;6.16;100.00;97502.66;5011433;28;20212;-61
2022/04/27 00:14:00;;;;;;;;;;;6.90;99.90;;;6.17;100.00;97505.22;5010501;28;19925;-61
2022/04/27 00:16:27;;;;;;;;;;;6.90;99.90;;;6.15;100.00;97495.69;5014344;28;19925;-61
2022/04/27 00:18:52;;;;;;;;;;;6.90;99.90;;;6.16;100.00;97494.81;5012357;28;19932;-61
2022/04/27 00:21:18;;;;;;;;;;;6.90;99.90;;;6.11;100.00;97489.63;5014146;28;19921;-61
2022/04/27 00:23:44;;;;;;;;;;;6.90;99.90;;;6.12;100.00;97509.69;5002905;28;19923;-61
2022/04/27 00:26:10;;;;;;;;;;;6.90;99.90;;;6.08;100.00;97495.81;5013155;28;19924;-60
2022/04/27 00:28:35;;;;;;;;;;;6.80;99.90;;;6.07;100.00;97504.53;5015135;28;19924;-61
2022/04/27 00:31:01;;;;;;;;;;;6.80;99.90;;;6.03;100.00;97502.88;5016741;28;19921;-61
2022/04/27 00:33:27;;;;;;;;;;;6.80;99.90;;;5.99;100.00;97498.56;5014194;28;19987;-61
2022/04/27 00:35:52;;;;;;;;;;;6.70;99.90;;;5.93;100.00;97494.25;5030738;22;20863;-47
2022/04/27 00:38:18;;;;;;;;;;;6.70;99.90;;;5.83;100.00;97495.31;5033697;28;19925;-50
2022/04/27 00:40:44;;;;;;;;;;;6.60;99.90;;;5.80;100.00;97491.91;5034317;28;19925;-49
2022/04/27 00:43:13;;;;;;;;;;;6.60;99.90;;;5.79;100.00;97500.63;5035202;28;20331;-47
2022/04/27 00:45:38;;;;;;;;;;;6.50;99.90;;;5.79;100.00;97498.00;5033582;28;19921;-47
2022/04/27 00:48:04;;;;;;;;;;;6.50;99.90;;;5.84;100.00;97507.50;5031007;28;20020;-51
2022/04/27 00:50:30;;;;;;;;;;;6.50;99.90;;;5.90;100.00;97509.16;5034375;28;20217;-49
2022/04/27 00:52:56;;;;;;;;;;;6.50;99.90;;;5.93;100.00;97501.25;5030778;28;20007;-50
2022/04/27 00:55:22;;;;;;;;;;;6.60;99.90;;;5.98;100.00;97506.47;5024435;28;20337;-49
2022/04/27 00:57:47;;;;;;;;;;;6.60;99.90;;;5.98;100.00;97498.59;5034038;28;19997;-48
2022/04/27 01:00:14;;;;;;;;;;;6.70;99.90;;;5.86;100.00;97474.31;5037420;28;20055;-50
2022/04/27 01:02:41;;;;;;;;;;;6.70;99.90;;;6.03;100.00;97501.97;5033861;28;20411;-50
2022/04/27 01:05:09;;;;;;;;;;;6.70;99.90;;;6.04;100.00;97515.06;5031216;28;19925;-50
2022/04/27 01:07:37;;;;;;;;;;;6.70;99.90;;;6.03;100.00;97513.34;5032168;28;19947;-52
2022/04/27 01:10:03;;;;;;;;;;;6.80;99.90;;;6.05;100.00;97521.19;5028577;28;19928;-47
2022/04/27 01:12:29;;;;;;;;;;;6.80;99.90;;;6.08;100.00;97523.72;5028262;28;20043;-50
2022/04/27 01:14:55;;;;;;;;;;;6.70;99.90;;;6.10;100.00;97524.56;5031027;28;19989;-49
2022/04/27 01:17:21;;;;;;;;;;;6.80;99.90;;;6.13;100.00;97524.50;5029538;28;20070;-51
2022/04/27 01:19:47;;;;;;;;;;;6.80;99.90;;;6.16;100.00;97518.38;5014415;28;20015;-51
2022/04/27 01:22:12;;;;;;;;;;;6.90;99.90;;;6.20;100.00;97526.13;5028313;28;19931;-50
2022/04/27 01:24:38;;;;;;;;;;;6.90;99.90;;;6.02;100.00;97495.03;5033884;28;19955;-47
2022/04/27 01:27:04;;;;;;;;;;;6.90;99.90;;;6.23;100.00;97525.22;5033340;28;19990;-48
2022/04/27 01:29:30;;;;;;;;;;;6.90;99.90;;;6.25;100.00;97534.78;5019626;28;20390;-48
2022/04/27 01:32:00;;;;;;;;;;;6.90;99.90;;;6.22;100.00;97523.50;5035609;28;19925;-47
2022/04/27 01:34:26;;;;;;;;;;;7.00;99.90;;;6.28;100.00;97529.50;5039208;28;19967;-51
2022/04/27 01:36:54;;;;;;;;;;;7.00;99.90;;;6.29;100.00;97533.81;5035706;28;19925;-48
2022/04/27 01:39:23;;;;;;;;;;;7.00;99.90;;;6.30;100.00;97527.72;5033943;28;20012;-51
2022/04/27 01:41:49;;;;;;;;;;;7.00;99.90;;;6.31;100.00;97521.56;5034896;28;19929;-49
2022/04/27 01:44:15;;;;;;;;;;;7.00;99.90;;;6.36;100.00;97525.88;5037113;28;19924;-49
2022/04/27 01:46:41;;;;;;;;;;;7.00;99.90;;;6.37;100.00;97531.09;5037380;28;19932;-51
2022/04/27 01:49:07;;;;;;;;;;;7.10;99.90;;;6.39;100.00;97528.41;5037591;28;19917;-51
2022/04/27 01:54:17;;;;;;;;;;;7.10;99.90;;;6.41;100.00;97524.03;5026594;28;19927;-51
2022/04/27 01:56:49;;;;;;;;;;;7.10;99.90;;;6.47;100.00;97534.38;5034015;28;19921;-51
2022/04/27 01:59:16;;;;;;;;;;;7.10;99.90;;;6.50;100.00;97534.34;5038118;28;19947;-51
2022/04/27 02:01:41;;;;;;;;;;;7.20;99.90;;;6.55;100.00;97534.25;5036537;28;19932;-51
2022/04/27 02:04:07;;;;;;;;;;;7.20;99.90;;;6.38;100.00;97495.28;5039099;28;19929;-51
2022/04/27 02:06:36;;;;;;;;;;;7.20;99.90;;;6.56;100.00;97528.97;5032920;28;19924;-52
2022/04/27 02:09:06;;;;;;;;;;;7.20;99.90;;;6.51;100.00;97520.31;5034844;28;19925;-52
2022/04/27 02:11:32;;;;;;;;;;;7.30;99.90;;;6.56;100.00;97528.97;5031876;28;19974;-47
2022/04/27 02:13:57;;;;;;;;;;;7.20;99.90;;;6.45;100.00;97515.22;5038393;28;19927;-49
2022/04/27 02:16:27;;;;;;;;;;;7.30;99.90;;;6.60;100.00;97538.50;5038584;28;19958;-47
2022/04/27 02:18:55;;;;;;;;;;;7.30;99.90;;;6.63;100.00;97538.44;5038278;28;19951;-49
2022/04/27 02:21:21;;;;;;;;;;;7.30;99.90;;;6.63;100.00;97535.81;5036470;28;19931;-49
2022/04/27 02:23:49;;;;;;;;;;;7.30;99.90;;;6.70;100.00;97536.56;5034250;28;19921;-50
2022/04/27 02:26:15;;;;;;;;;;;7.40;99.90;;;6.65;100.00;97530.56;5038517;28;19925;-48
2022/04/27 02:28:41;;;;;;;;;;;7.40;99.90;;;6.72;100.00;97550.50;5040843;28;19921;-48
2022/04/27 02:31:07;;;;;;;;;;;7.40;99.90;;;6.71;100.00;97547.91;5038361;28;19925;-48
2022/04/27 02:33:33;;;;;;;;;;;7.40;99.90;;;6.75;100.00;97545.22;5038022;28;20370;-50
2022/04/27 02:35:59;;;;;;;;;;;7.40;99.90;;;6.77;100.00;97553.91;5040000;28;20368;-50
2022/04/27 02:38:26;;;;;;;;;;;7.50;99.90;;;6.78;100.00;97550.38;5037945;28;19923;-49
2022/04/27 02:40:52;;;;;;;;;;;7.40;99.90;;;6.81;100.00;97555.56;5035815;28;19986;-48
2022/04/27 02:43:18;;;;;;;;;;;7.50;99.90;;;6.83;100.00;97545.06;5037385;28;19921;-50
2022/04/27 02:45:43;;;;;;;;;;;7.50;99.90;;;6.82;100.00;97551.19;5036932;28;20395;-50
2022/04/27 02:48:10;;;;;;;;;;;7.50;99.90;;;6.84;100.00;97552.03;5037854;28;19927;-49
2022/04/27 02:53:21;;;;;;;;;;;7.50;99.90;;;6.87;100.00;97549.34;5035095;28;19982;-50
2022/04/27 02:55:47;;;;;;;;;;;7.50;99.90;;;6.88;100.00;97551.09;5037502;28;20276;-50
2022/04/27 02:58:13;;;;;;;;;;;7.50;99.90;;;6.89;100.00;97555.41;5037906;28;19960;-47
2022/04/27 03:00:39;;;;;;;;;;;7.50;99.90;;;6.87;100.00;97557.22;5040928;28;20380;-48
2022/04/27 03:03:07;;;;;;;;;;;7.50;99.90;;;6.89;100.00;97552.78;5036564;28;20330;-49
2022/04/27 03:05:33;;;;;;;;;;;7.50;99.90;;;6.89;100.00;97563.28;5036457;28;19921;-47
2022/04/27 03:07:58;;;;;;;;;;;7.50;99.90;;;6.83;100.00;97548.53;5034518;28;21450;-47
2022/04/27 03:10:24;;;;;;;;;;;7.50;99.90;;;6.70;100.00;97531.34;5034377;28;19924;-50
2022/04/27 03:12:49;;;;;;;;;;;7.50;99.90;;;6.91;100.00;97560.63;5031848;28;20007;-47
2022/04/27 03:15:15;;;;;;;;;;;7.50;99.90;;;6.85;100.00;97556.38;5038508;28;20292;-49
2022/04/27 03:17:41;;;;;;;;;;;7.60;99.90;;;6.92;100.00;97565.84;5035790;28;20107;-51
2022/04/27 03:20:07;;;;;;;;;;;7.60;99.90;;;6.94;100.00;97565.81;5037955;28;19939;-50
2022/04/27 03:22:32;;;;;;;;;;;7.60;99.90;;;6.94;100.00;97556.19;5036557;28;20459;-47
2022/04/27 03:24:58;;;;;;;;;;;7.60;99.90;;;6.94;100.00;97556.19;5032788;28;19928;-50
2022/04/27 03:27:24;;;;;;;;;;;7.60;99.90;;;6.94;100.00;97561.44;5033296;28;19943;-50
2022/04/27 03:29:50;;;;;;;;;;;7.60;99.90;;;6.98;100.00;97567.47;5035296;28;19974;-48
2022/04/27 03:32:15;;;;;;;;;;;7.60;99.90;;;6.97;100.00;97563.16;5034625;28;20401;-50
2022/04/27 03:34:41;;;;;;;;;;;7.60;99.90;;;6.90;100.00;97558.94;5032851;28;19978;-48
2022/04/27 03:37:07;;;;;;;;;;;7.60;99.90;;;6.99;100.00;97570.09;5034119;28;20195;-46
2022/04/27 03:39:33;;;;;;;;;;;7.60;99.90;;;6.99;100.00;97570.09;5035097;28;19932;-46
2022/04/27 03:41:59;;;;;;;;;;;7.60;99.90;;;7.00;100.00;97577.06;5032241;28;19928;-47
2022/04/27 03:44:25;;;;;;;;;;;7.70;99.90;;;7.00;100.00;97577.06;5034311;28;19932;-50
2022/04/27 03:46:50;;;;;;;;;;;7.60;99.90;;;7.00;100.00;97581.41;5030505;28;19928;-49
2022/04/27 03:49:16;;;;;;;;;;;7.60;99.90;;;7.04;100.00;97580.50;5029844;28;23080;-47
2022/04/27 03:51:42;;;;;;;;;;;7.70;99.90;;;6.95;100.00;97573.66;5030014;28;20363;-47
2022/04/27 03:54:07;;;;;;;;;;;7.70;99.90;;;7.03;100.00;97579.63;5033931;28;19935;-49
2022/04/27 03:56:33;;;;;;;;;;;7.70;99.90;;;7.00;100.00;97581.41;5034375;28;19927;-48
2022/04/27 03:58:59;;;;;;;;;;;7.70;99.90;;;7.05;100.00;97590.06;5033252;28;19928;-50
2022/04/27 04:01:24;;;;;;;;;;;7.70;99.90;;;7.03;100.00;97591.88;5027554;28;19931;-47
2022/04/27 04:03:50;;;;;;;;;;;7.70;99.90;;;7.03;100.00;97590.13;5031014;28;19939;-48
2022/04/27 04:06:16;;;;;;;;;;;7.70;99.90;;;6.88;100.00;97561.56;5034134;28;19925;-48
2022/04/27 04:08:41;;;;;;;;;;;7.70;99.90;;;7.04;100.00;97594.47;5028841;28;20304;-50
2022/04/27 04:11:07;;;;;;;;;;;7.70;99.90;;;7.00;100.00;97584.03;5030385;28;20272;-48
2022/04/27 04:13:32;;;;;;;;;;;7.70;99.90;;;7.05;100.00;97600.56;5016678;28;19971;-47
2022/04/27 04:15:58;;;;;;;;;;;7.70;99.90;;;7.03;100.00;97595.38;5032258;28;19920;-50
2022/04/27 04:18:24;;;;;;;;;;;7.70;99.90;;;6.97;100.00;97578.88;5029943;28;20030;-49
2022/04/27 04:20:49;;;;;;;;;;;7.70;99.90;;;7.03;100.00;97591.88;5032612;28;20449;-48
2022/04/27 04:23:15;;;;;;;;;;;7.70;99.90;;;7.02;100.00;97588.38;5031002;28;19924;-49
2022/04/27 04:28:31;;;;;;;;;;;7.70;99.90;;;7.14;100.00;97604.75;5037396;28;20374;-49
2022/04/27 04:31:04;;;;;;;;;;;7.80;99.90;;;7.15;100.00;97615.22;5029932;28;19928;-48
2022/04/27 04:33:30;;;;;;;;;;;7.80;99.90;;;7.12;100.00;97607.41;5035736;28;19924;-48
2022/04/27 04:35:57;;;;;;;;;;;7.80;99.90;;;7.19;100.00;97621.28;5008123;28;786708;-49
2022/04/27 04:38:23;;;;;;;;;;;7.80;99.90;;;7.21;100.00;97627.34;5038267;28;20425;-49
2022/04/27 04:40:49;;;;;;;;;;;7.80;99.90;;;7.13;100.00;97613.53;5037237;28;19940;-47
2022/04/27 04:43:15;;;;;;;;;;;7.90;99.90;;;7.22;100.00;97631.72;5032349;28;19925;-47
2022/04/27 04:45:41;;;;;;;;;;;7.90;99.90;;;7.19;100.00;97621.28;5023882;28;19924;-51
2022/04/27 04:48:08;;;;;;;;;;;7.90;99.90;;;7.26;100.00;97636.00;5033398;28;19971;-48
2022/04/27 04:50:35;;;;;;;;;;;7.90;99.90;;;7.28;100.00;97647.31;5036381;28;19956;-48
2022/04/27 04:53:01;;;;;;;;;;;7.90;99.90;;;7.32;100.00;97649.00;5034064;28;20418;-52
2022/04/27 04:55:27;;;;;;;;;;;7.90;99.90;;;7.35;100.00;97653.31;5035198;28;19920;-49
2022/04/27 04:57:52;;;;;;;;;;;8.00;99.90;;;7.36;100.00;97647.19;5052023;28;19967;-48
2022/04/27 05:00:18;;;;;;;;;;;8.00;99.90;;;7.37;100.00;97652.38;5033480;28;19983;-50
2022/04/27 05:02:44;;;;;;;;;;;8.00;99.90;;;7.40;100.00;97661.97;5038683;28;19920;-48
2022/04/27 05:05:10;;;;;;;;;;;8.00;99.90;;;7.38;100.00;97659.38;5033402;28;20627;-49
2022/04/27 05:07:35;;;;;;;;;;;8.00;99.90;;;7.39;100.00;97657.59;5032098;28;19921;-48
2022/04/27 05:10:02;;;;;;;;;;;8.00;99.90;;;7.41;100.00;97658.44;5034548;28;19947;-49
2022/04/27 05:12:28;;;;;;;;;;;8.10;99.90;;;7.45;100.00;97662.75;5030664;28;19978;-47
2022/04/27 05:14:54;;;;;;;;;;;8.10;99.90;;;7.41;100.00;97661.94;5035815;28;19925;-50
2022/04/27 05:17:21;;;;;;;;;;;8.10;99.90;;;7.42;100.00;97674.16;5035443;28;20377;-48
2022/04/27 05:19:48;;;;;;;;;;;8.10;99.90;;;7.41;100.00;97671.56;5033711;28;19979;-50
2022/04/27 05:22:14;;;;;;;;;;;8.10;99.90;;;7.46;100.00;97672.31;5032471;28;19925;-47
2022/04/27 05:24:40;;;;;;;;;;;8.10;99.90;;;7.44;100.00;97661.00;5031493;28;20053;-49
2022/04/27 05:27:06;;;;;;;;;;;8.10;99.90;;;7.53;100.00;97670.44;5032526;28;19920;-47
2022/04/27 05:32:41;;;;;;;;;;;8.20;99.90;;;7.70;100.00;97681.47;5033932;28;20179;-50
2022/04/27 05:35:06;;;;;;;;;;;8.30;99.90;;;7.79;100.00;97681.28;5032987;28;19943;-48
2022/04/27 05:37:32;;;;;;;;;;;8.40;99.90;;;7.81;100.00;97686.50;5030976;28;20384;-49
2022/04/27 05:39:58;;;;;;;;;;;8.40;99.90;;;7.81;100.00;97687.34;5034059;28;20156;-50
2022/04/27 05:42:23;;;;;;;;;;;8.50;99.90;;;7.83;100.00;97688.19;5035095;28;19921;-49
2022/04/27 05:44:49;;;;;;;;;;;8.50;99.90;;;7.73;100.00;97681.38;5033182;28;20024;-48
2022/04/27 05:47:14;;;;;;;;;;;8.50;99.90;;;7.79;100.00;97701.44;5025753;28;19925;-48
2022/04/27 05:49:40;;;;;;;;;;;8.40;99.90;;;7.79;100.00;97704.91;5035264;28;19920;-49
2022/04/27 05:52:06;;;;;;;;;;;8.40;99.90;;;7.81;100.00;97708.38;5032275;28;20010;-49
2022/04/27 05:54:31;;;;;;;;;;;8.40;99.90;;;7.83;100.00;97709.19;5034450;28;19977;-50
2022/04/27 05:56:57;;;;;;;;;;;8.50;99.90;;;7.86;100.00;97707.38;5035479;28;19920;-48
2022/04/27 05:59:23;;;;;;;;;;;8.50;99.90;;;7.88;100.00;97714.34;5034485;28;20396;-47
2022/04/27 06:01:48;;;;;;;;;;;8.50;99.90;;;7.91;100.00;97711.66;5030540;28;19935;-47
2022/04/27 06:04:14;;;;;;;;;;;8.50;99.90;;;7.89;100.00;97717.84;5025594;28;19939;-50
2022/04/27 06:06:40;;;;;;;;;;;8.50;99.90;;;7.90;100.00;97711.72;5035237;28;19956;-47
2022/04/27 06:09:05;;;;;;;;;;;8.50;99.90;;;7.88;100.00;97718.72;5029785;28;19917;-48
2022/04/27 06:11:31;;;;;;;;;;;8.50;99.90;;;7.84;100.00;97713.56;5033304;28;19917;-48
2022/04/27 06:13:56;;;;;;;;;;;8.50;99.90;;;7.88;100.00;97719.59;5042229;28;19951;-50
2022/04/27 06:16:24;;;;;;;;;;;8.50;99.90;;;7.87;100.00;97717.88;5033824;28;19951;-48
2022/04/27 06:18:50;;;;;;;;;;;8.50;99.90;;;7.80;100.00;97721.53;5038441;28;20400;-48
2022/04/27 06:21:17;;;;;;;;;;;8.50;99.90;;;7.85;100.00;97724.91;5033444;28;19928;-48
2022/04/27 06:23:43;;;;;;;;;;;8.50;99.90;;;7.88;100.00;97727.50;5036269;28;19929;-48
2022/04/27 06:26:08;;;;;;;;;;;8.50;99.90;;;7.92;100.00;97731.78;5035402;28;19928;-46
2022/04/27 06:28:34;;;;;;;;;;;8.50;99.90;;;7.96;100.00;97727.31;5037075;28;19960;-47
2022/04/27 06:31:00;;;;;;;;;;;8.60;99.90;;;7.91;100.00;97718.66;5032367;28;19921;-50
2022/04/27 06:33:26;;;;;;;;;;;8.60;99.90;;;8.09;100.00;97730.53;5039199;28;19971;-47
2022/04/27 06:35:52;;;;;;;;;;;8.70;99.90;;;8.10;100.00;97725.25;5039192;28;19925;-49
2022/04/27 06:38:18;;;;;;;;;;;8.70;99.90;;;8.23;100.00;97736.34;5037444;28;19967;-47
2022/04/27 06:40:44;;;;;;;;;;;8.80;99.90;;;8.24;100.00;97730.22;5039349;28;20362;-48
2022/04/27 06:43:09;;;;;;;;;;;8.90;99.90;;;8.32;100.00;97749.28;5038605;28;19929;-48
2022/04/27 06:45:36;;;;;;;;;;;8.90;99.90;;;8.37;100.00;97754.47;5038456;28;19921;-49
2022/04/27 06:48:03;;;;;;;;;;;9.00;99.90;;;8.44;100.00;97750.81;5039177;28;19944;-47
2022/04/27 06:50:29;;;;;;;;;;;9.00;99.90;;;8.44;100.00;97752.59;5037692;28;19920;-50
2022/04/27 06:52:55;;;;;;;;;;;9.10;99.90;;;8.52;100.00;97753.25;5039070;28;20704;-47
2022/04/27 06:55:21;;;;;;;;;;;9.10;99.90;;;8.66;100.00;97758.22;5036894;28;19932;-47
2022/04/27 06:57:46;;;;;;;;;;;9.30;99.90;;;8.85;100.00;97762.13;5033871;28;20296;-48
2022/04/27 07:00:12;;;;;;;;;;;9.40;99.90;;;9.00;100.00;97774.03;5032277;28;19964;-51
2022/04/27 07:02:39;;;;;;;;;;;9.60;99.90;;;9.22;100.00;97778.75;5030898;28;20259;-49
2022/04/27 07:05:06;;;;;;;;;;;9.80;99.90;;;9.34;100.00;97778.44;5045983;22;19929;-51
2022/04/27 07:07:32;;;;;;;;;;;10.00;99.90;;;9.42;100.00;97775.59;5024452;28;20402;-50
2022/04/27 07:09:58;;;;;;;;;;;10.10;99.90;;;9.50;100.00;97784.19;5031216;28;19971;-53
2022/04/27 07:12:24;;;;;;;;;;;10.10;99.90;;;9.63;100.00;97790.84;5033133;28;20391;-51
2022/04/27 07:14:53;;;;;;;;;;;10.20;99.90;;;9.66;100.00;97785.50;5030920;28;20255;-52
2022/04/27 07:17:18;;;;;;;;;;;10.30;99.90;;;9.71;100.00;97785.38;5033615;28;20269;-51
2022/04/27 07:19:44;;;;;;;;;;;10.30;99.90;;;9.79;100.00;97799.19;5031494;28;19925;-50
2022/04/27 07:22:11;;;;;;;;;;;10.30;99.90;;;9.78;100.00;97793.97;5027866;28;19947;-50
2022/04/27 07:24:37;;;;;;;;;;;10.40;99.90;;;9.84;100.00;97801.72;5032944;28;19924;-51
2022/04/27 07:27:03;;;;;;;;;;;10.40;99.90;;;9.91;100.00;97808.53;5026921;28;19921;-49
2022/04/27 07:29:29;;;;;;;;;;;10.40;99.90;;;10.00;100.00;97803.00;5031734;28;19956;-49
2022/04/27 07:31:55;;;;;;;;;;;10.50;99.90;;;10.06;100.00;97796.69;5032306;28;20058;-48
2022/04/27 07:34:21;;;;;;;;;;;10.60;99.90;;;10.28;100.00;97797.81;5027660;28;20434;-50
2022/04/27 07:36:47;;;;;;;;;;;10.80;99.90;;;10.55;100.00;97797.03;5029737;28;19948;-49
2022/04/27 07:39:12;;;;;;;;;;;11.10;99.90;;;10.80;100.00;97800.69;5029775;28;20320;-49
2022/04/27 07:41:38;;;;;;;;;;;11.30;99.90;;;11.01;100.00;97785.06;5044072;28;20306;-51
2022/04/27 07:44:04;;;;;;;;;;;11.60;99.90;;;11.29;100.00;97800.84;5031526;28;20661;-51
2022/04/27 07:46:29;;;;;;;;;;;11.90;99.90;;;11.45;100.00;97809.97;5026726;28;20008;-50
2022/04/27 07:48:55;;;;;;;;;;;12.00;99.90;;;11.48;100.00;97814.28;5029931;28;20384;-50
2022/04/27 07:51:21;;;;;;;;;;;12.10;99.90;;;11.44;100.00;97818.81;5027698;28;20019;-50
2022/04/27 07:53:47;;;;;;;;;;;12.00;99.90;;;11.28;100.00;97825.53;5030118;28;19916;-52
2022/04/27 07:56:13;;;;;;;;;;;12.00;99.90;;;11.10;100.00;97816.44;5030352;28;19932;-53
2022/04/27 07:58:38;;;;;;;;;;;11.80;99.90;;;11.10;100.00;97829.63;5032747;28;19921;-52
2022/04/27 08:01:04;;;;;;;;;;;11.70;99.90;;;11.03;100.00;97830.72;5028742;28;19936;-52
2022/04/27 08:03:30;;;;;;;;;;;11.60;99.90;;;10.79;100.00;97835.88;5023788;28;20642;-49
2022/04/27 08:05:56;;;;;;;;;;;11.60;99.90;;;11.12;100.00;97838.34;5031771;28;19917;-48
2022/04/27 08:08:21;;;;;;;;;;;11.70;99.90;;;11.54;100.00;97840.50;5029812;28;19916;-50
2022/04/27 08:10:47;;;;;;;;;;;12.10;99.90;;;11.92;100.00;97846.28;5027486;28;19921;-52
2022/04/27 08:13:15;;;;;;;;;;;12.50;99.90;;;12.24;100.00;97836.34;5026582;28;19960;-53
2022/04/27 08:15:40;;;;;;;;;;;12.80;99.90;;;12.60;99.10;97849.09;5028051;28;19927;-52
2022/04/27 08:18:07;;;;;;;;;;;13.20;99.90;;;12.99;93.67;97843.16;5028960;28;19920;-52
2022/04/27 08:23:23;;;;;;;;;;;14.00;99.90;;;13.60;87.49;97855.72;5027219;28;19928;-50
2022/04/27 08:25:49;;;;;;;;;;;14.30;99.90;;;13.57;86.44;97861.19;5029871;28;19924;-50
2022/04/27 08:28:16;;;;;;;;;;;14.40;99.90;;;13.51;86.00;97837.56;5029772;28;20649;-53
2022/04/27 08:30:46;;;;;;;;;;;14.30;99.90;;;13.67;84.25;97866.94;5027295;28;19917;-50
2022/04/27 08:33:12;;;;;;;;;;;14.30;99.90;;;13.57;81.20;97869.13;5028707;28;19921;-47
2022/04/27 08:35:38;;;;;;;;;;;14.40;99.90;;;13.60;79.76;97862.84;5028135;28;19925;-50
2022/04/27 08:38:05;;;;;;;;;;;14.30;99.90;;;13.47;81.27;97865.13;5032765;28;19932;-52
2022/04/27 08:40:31;;;;;;;;;;;14.20;99.90;;;13.21;81.43;97859.09;5029330;28;19931;-52
2022/04/27 08:42:57;;;;;;;;;;;14.00;99.90;;;13.09;83.43;97859.56;5030194;28;20219;-51
2022/04/27 08:45:23;;;;;;;;;;;13.90;99.90;;;13.02;85.09;97856.28;5025581;28;19920;-50
2022/04/27 08:47:50;;;;;;;;;;;13.70;99.90;;;12.67;84.23;97869.13;5029213;28;20002;-51
2022/04/27 08:50:20;;;;;;;;;;;13.50;99.90;;;12.70;86.60;97876.91;5026648;28;19936;-48
2022/04/27 08:52:47;;;;;;;;;;;13.40;99.90;;;12.47;85.49;97871.63;5027886;28;19924;-50
2022/04/27 08:55:14;;;;;;;;;;;13.30;99.90;;;12.63;86.86;97872.78;5027114;28;20051;-52
2022/04/27 08:57:40;;;;;;;;;;;13.30;99.90;;;12.78;85.41;97874.84;5028064;28;20409;-47
2022/04/27 09:00:08;;;;;;;;;;;13.40;99.90;;;12.79;85.75;97876.59;5025726;28;20142;-51
2022/04/27 09:02:34;;;;;;;;;;;13.60;99.90;;;13.02;88.08;97868.69;5029987;28;19921;-53
2022/04/27 09:05:08;;;;;;;;;;;13.70;99.90;;;13.22;86.64;97878.47;5028736;28;20368;-54
2022/04/27 09:07:38;;;;;;;;;;;13.80;99.90;;;13.42;81.60;97878.56;5028703;28;20360;-54
2022/04/27 09:10:14;;;;;;;;;;;14.00;99.90;;;13.37;80.71;97880.56;5028616;28;19943;-51
2022/04/27 09:12:46;;;;;;;;;;;14.00;99.90;;;13.51;81.38;97880.84;5029183;28;19920;-54
2022/04/27 09:15:12;;;;;;;;;;;14.20;99.90;;;13.77;82.94;97876.25;5029650;28;19921;-52
2022/04/27 09:23:41;;;;;;;;;;;14.90;99.90;;;14.14;77.61;97879.97;5033518;28;19995;-54
2022/04/27 09:26:19;;;;;;;;;;;15.00;99.90;;;14.19;78.76;97861.19;5032561;28;19931;-55
2022/04/27 09:28:48;;;;;;;;;;;15.00;99.90;;;14.55;74.23;97887.88;5031884;28;19979;-56
2022/04/27 09:31:33;;;;;;;;;;;15.20;99.90;;;14.85;76.29;97892.75;5031538;28;19921;-53
2022/04/27 09:34:00;;;;;;;;;;;15.40;99.90;;;15.01;74.91;97882.28;5032622;28;19980;-53
2022/04/27 09:36:26;;;;;;;;;;;15.70;99.90;;;14.95;69.65;97899.38;5026109;28;19925;-55
2022/04/27 09:38:53;;;;;;;;;;;15.90;99.90;;;15.12;68.80;97884.41;5029602;28;19932;-53
2022/04/27 09:41:42;;;;;;;;;;;16.00;99.90;;;15.37;68.69;97892.94;5030108;28;19929;-54
2022/04/27 09:44:10;;;;;;;;;;;15.90;99.90;;;15.25;63.29;97885.53;5029273;28;19932;-54
2022/04/27 09:46:40;;;;;;;;;;;15.80;99.90;;;15.13;67.54;97887.00;5031422;28;20352;-54
2022/04/27 09:49:07;;;;;;;;;;;15.70;99.90;;;14.92;66.48;97888.88;5032492;28;19924;-54
2022/04/27 09:51:34;;;;;;;;;;;15.60;99.90;;;14.74;64.97;97889.75;5030948;28;20078;-52
2022/04/27 09:54:00;;;;;;;;;;;15.50;99.90;;;14.83;68.09;97889.31;5031613;28;19923;-51
2022/04/27 09:56:37;;;;;;;;;;;15.50;99.90;;;14.80;68.43;97889.44;5036299;28;19917;-54
2022/04/27 09:59:09;;;;;;;;;;;15.60;99.90;;;14.83;68.62;97892.81;5033866;28;19925;-54
2022/04/27 10:01:36;;;;;;;;;;;15.60;99.90;;;14.86;66.63;97890.03;5033112;28;19925;-50
2022/04/27 10:04:05;;;;;;;;;;;15.70;99.90;;;14.85;66.12;97890.09;5039773;23;19954;-53
2022/04/27 10:06:32;;;;;;;;;;;15.70;99.90;;;15.03;67.87;97885.72;5058196;28;19951;-51
2022/04/27 10:08:59;;;;;;;;;;;15.80;99.90;;;15.30;69.01;97888.84;5056406;28;20375;-54
2022/04/27 10:11:27;;;;;;;;;;;16.00;99.90;;;15.63;65.84;97901.41;5057855;28;20003;-53
2022/04/27 10:13:54;;;;;;;;;;;16.20;99.90;;;15.73;64.97;97897.38;5051008;28;19920;-54
2022/04/27 10:16:21;;;;;;;;;;;16.50;99.90;;;16.11;62.81;97907.03;5052974;28;19925;-52
2022/04/27 10:18:47;;;;;;;;;;;16.70;99.90;;;16.18;64.09;97893.34;5058846;22;20297;-63
2022/04/27 10:21:14;;;;;;;;;;;16.90;99.90;;;16.35;61.61;97900.47;5025187;28;19921;-63
2022/04/27 10:23:43;;;;;;;;;;;17.00;99.90;;;16.40;60.62;97903.75;5019015;28;19921;-63
2022/04/27 10:26:11;;;;;;;;;;;17.10;99.90;;;16.49;59.14;97902.41;5022929;28;19921;-63
2022/04/27 10:28:48;;;;;;;;;;;17.20;99.90;;;16.84;61.55;97890.84;5018115;28;20012;-64
2022/04/27 10:31:14;;;;;;;;;;;17.40;99.90;;;16.93;63.39;97893.00;5005554;28;19932;-63
2022/04/27 10:33:50;;;;;;;;;;;17.60;99.90;;;17.00;57.87;97901.50;4985874;28;19917;-63
2022/04/27 10:36:27;;;;;;;;;;;17.70;99.90;;;16.95;56.68;97899.94;5003669;28;19940;-63
2022/04/27 10:39:11;;;;;;;;;;;17.70;99.90;;;16.72;56.72;97894.97;4998240;28;20400;-63
2022/04/27 10:41:41;;;;;;;;;;;17.50;99.90;;;16.77;56.09;97898.25;5000023;28;19925;-63
2022/04/27 10:44:06;;;;;;;;;;;17.50;99.90;;;16.54;56.89;97910.13;5003412;28;19934;-63
2022/04/27 10:46:39;;;;;;;;;;;17.40;99.90;;;16.32;60.07;97900.63;5005127;28;19968;-63
2022/04/27 10:49:23;;;;;;;;;;;17.20;99.90;;;16.17;56.25;97909.41;4998750;28;20167;-63
2022/04/27 10:52:02;;;;;;;;;;;17.00;99.90;;;15.99;57.51;97906.75;4990748;28;19918;-63
2022/04/27 10:54:31;;;;;;;;;;;16.70;99.90;;;15.66;57.20;97907.44;4982243;28;20505;-63
2022/04/27 10:57:14;;;;;;;;;;;16.40;99.90;;;15.49;59.19;97909.22;5006040;28;19929;-63
2022/04/27 10:59:47;;;;;;;;;;;16.20;99.90;;;15.42;59.15;97906.84;4999285;28;19925;-63
2022/04/27 11:02:34;;;;;;;;;;;16.10;99.90;;;15.06;63.79;97894.41;4996328;28;19926;-63
2022/04/27 11:05:01;;;;;;;;;;;16.10;99.90;;;15.22;62.18;97901.66;5001446;28;20031;-63
2022/04/27 11:07:29;;;;;;;;;;;16.00;99.90;;;15.24;60.45;97907.75;5001046;28;19925;-63
2022/04/27 11:10:08;;;;;;;;;;;16.10;99.90;;;15.43;61.11;97908.59;5006099;28;19925;-62
2022/04/27 11:12:36;;;;;;;;;;;16.10;99.90;;;15.60;59.44;97910.41;4999388;28;20304;-62
2022/04/27 11:15:03;;;;;;;;;;;16.30;99.90;;;15.78;59.34;97911.34;4999865;28;20118;-63
2022/04/27 11:17:29;;;;;;;;;;;16.50;99.90;;;16.02;56.18;97916.34;5000920;28;22566;-63
2022/04/27 11:19:56;;;;;;;;;;;16.70;99.90;;;16.09;55.65;97914.25;5005815;28;20416;-63
2022/04/27 11:22:22;;;;;;;;;;;16.80;99.90;;;16.34;56.13;97916.50;5000922;28;19921;-63
2022/04/27 11:24:49;;;;;;;;;;;17.00;99.90;;;16.26;56.42;97905.38;4995931;28;19917;-64
2022/04/27 11:27:26;;;;;;;;;;;17.10;99.90;;;16.08;56.02;97905.41;4999904;28;20416;-63
2022/04/27 11:29:53;;;;;;;;;;;17.00;99.30;;;15.84;57.93;97902.19;4998692;28;19929;-63
2022/04/27 11:32:19;;;;;;;;;;;16.60;99.90;;;15.36;59.30;97906.28;4995869;28;20215;-63
2022/04/27 11:34:48;;;;;;;;;;;16.30;99.90;;;15.07;61.34;97908.53;4991348;28;20018;-63
2022/04/27 11:37:16;;;;;;;;;;;15.80;99.90;;;14.79;62.32;97901.00;5000982;28;20008;-63
2022/04/27 11:39:43;;;;;;;;;;;15.50;99.90;;;14.66;60.87;97903.34;5003721;28;19921;-63
2022/04/27 11:42:12;;;;;;;;;;;15.30;99.90;;;14.63;60.77;97901.69;4986310;28;19933;-63